createdAt,value
2022-08-22T00:00:48.678Z,2.10
2022-08-22T00:02:53.348Z,1.67
2022-08-22T00:02:54.565Z,1.73
2022-08-22T00:03:34.927Z,2.17
2022-08-22T00:06:12.104Z,2.13
2022-08-22T00:08:54.163Z,1.98
2022-08-22T00:14:14.481Z,2.33
2022-08-22T00:16:54.563Z,2.08
2022-08-22T00:19:35.170Z,2.20
2022-08-22T00:22:12.619Z,2.83
2022-08-22T00:24:48.594Z,2.58
2022-08-22T00:27:23.095Z,2.30
2022-08-22T00:30:07.914Z,2.80
2022-08-22T00:32:42.611Z,2.20
2022-08-22T00:35:20.339Z,2.28
2022-08-22T00:38:00.423Z,2.50
2022-08-22T00:40:47.058Z,2.80
2022-08-22T00:43:59.466Z,2.42
2022-08-22T00:46:52.462Z,2.28
2022-08-22T00:49:40.691Z,2.70
2022-08-22T00:52:53.699Z,2.53
2022-08-22T00:55:53.134Z,2.72
2022-08-22T00:58:52.424Z,2.25
2022-08-22T01:01:29.905Z,2.60
2022-08-22T01:04:22.577Z,3.03
2022-08-22T01:07:09.356Z,2.60
2022-08-22T01:09:52.881Z,2.63
2022-08-22T01:12:45.947Z,2.60
2022-08-22T01:15:22.005Z,2.65
2022-08-22T01:18:29.373Z,2.50
2022-08-22T01:21:52.439Z,2.60
2022-08-22T01:25:25.993Z,2.50
2022-08-22T01:28:39.628Z,2.55
2022-08-22T01:32:10.247Z,2.33
2022-08-22T01:35:25.274Z,2.30
2022-08-22T01:38:23.213Z,2.55
2022-08-22T01:41:19.920Z,3.30
2022-08-22T01:44:21.400Z,2.53
2022-08-22T01:47:00.595Z,2.35
2022-08-22T01:49:38.096Z,2.35
2022-08-22T01:52:12.295Z,2.45
2022-08-22T01:54:50.853Z,2.63
2022-08-22T01:57:19.238Z,2.65
2022-08-22T01:59:50.070Z,2.60
2022-08-22T02:02:46.058Z,2.25
2022-08-22T02:05:27.331Z,2.47
2022-08-22T02:08:03.317Z,2.87
2022-08-22T02:10:52.371Z,2.47
2022-08-22T02:13:51.067Z,2.92
2022-08-22T02:16:32.659Z,2.35
2022-08-22T02:19:28.441Z,2.30
2022-08-22T02:22:03.144Z,2.55
2022-08-22T02:24:51.054Z,2.40
2022-08-22T02:27:33.316Z,2.50
2022-08-22T02:30:08.871Z,2.80
2022-08-22T02:32:54.055Z,2.67
2022-08-22T02:35:30.839Z,2.40
2022-08-22T02:38:13.901Z,2.33
2022-08-22T02:40:53.342Z,2.83
2022-08-22T02:43:26.734Z,2.22
2022-08-22T02:46:02.340Z,2.83
2022-08-22T02:48:41.889Z,2.90
2022-08-22T02:51:20.886Z,2.40
2022-08-22T02:53:59.513Z,2.72
2022-08-22T02:56:34.880Z,2.47
2022-08-22T02:59:22.490Z,2.50
2022-08-22T03:01:51.395Z,2.70
2022-08-22T03:04:50.831Z,2.80
2022-08-22T03:07:41.154Z,2.55
2022-08-22T03:10:21.938Z,2.72
2022-08-22T03:13:02.805Z,2.80
2022-08-22T03:15:40.157Z,2.65
2022-08-22T03:18:25.761Z,2.70
2022-08-22T03:21:11.421Z,2.60
2022-08-22T03:23:46.500Z,2.85
2022-08-22T03:26:21.963Z,2.85
2022-08-22T03:29:00.106Z,3.10
2022-08-22T03:31:30.618Z,2.90
2022-08-22T03:34:22.442Z,2.88
2022-08-22T03:37:06.082Z,2.70
2022-08-22T03:39:47.685Z,2.65
2022-08-22T03:43:00.378Z,2.63
2022-08-22T03:49:05.608Z,2.55
2022-08-22T03:51:51.528Z,2.53
2022-08-22T03:54:53.003Z,2.60
2022-08-22T03:58:06.548Z,3.10
2022-08-22T04:01:15.347Z,2.80
2022-08-22T04:04:27.287Z,2.67
2022-08-22T04:10:31.000Z,2.47
2022-08-22T04:14:02.359Z,2.53
2022-08-22T04:17:11.768Z,2.58
2022-08-22T04:20:36.945Z,2.53
2022-08-22T04:23:35.700Z,2.20
2022-08-22T04:26:14.575Z,2.55
2022-08-22T04:28:48.974Z,2.45
2022-08-22T04:31:25.152Z,2.35
2022-08-22T04:34:01.206Z,2.40
2022-08-22T04:36:39.747Z,2.30
2022-08-22T04:39:15.308Z,2.67
2022-08-22T04:41:50.240Z,2.70
2022-08-22T04:44:26.242Z,2.78
2022-08-22T04:47:03.281Z,2.30
2022-08-22T04:49:39.858Z,2.22
2022-08-22T04:52:20.623Z,2.25
2022-08-22T04:55:09.552Z,2.50
2022-08-22T04:57:55.793Z,2.30
2022-08-22T05:00:23.604Z,2.42
2022-08-22T05:02:57.112Z,2.30
2022-08-22T05:05:35.557Z,2.75
2022-08-22T05:08:08.985Z,2.55
2022-08-22T05:10:44.332Z,2.38
2022-08-22T05:13:17.992Z,2.17
2022-08-22T05:15:49.755Z,2.58
2022-08-22T05:18:22.196Z,2.13
2022-08-22T05:23:56.903Z,2.08
2022-08-22T05:26:27.251Z,2.53
2022-08-22T05:29:02.389Z,2.58
2022-08-22T05:31:34.502Z,2.45
2022-08-22T05:34:09.836Z,2.30
2022-08-22T05:36:43.202Z,2.22
2022-08-22T05:39:16.619Z,2.50
2022-08-22T05:41:43.880Z,2.50
2022-08-22T05:44:21.116Z,2.30
2022-08-22T05:46:52.699Z,2.47
2022-08-22T05:49:29.656Z,2.50
2022-08-22T05:52:15.335Z,2.10
2022-08-22T05:54:52.044Z,2.20
2022-08-22T05:57:28.783Z,2.30
2022-08-22T06:00:06.163Z,2.60
2022-08-22T06:02:55.156Z,2.20
2022-08-22T06:05:28.907Z,2.38
2022-08-22T06:08:04.869Z,1.92
2022-08-22T06:10:42.096Z,2.20
2022-08-22T06:13:17.355Z,1.95
2022-08-22T06:16:05.727Z,2.00
2022-08-22T06:18:35.597Z,2.00
2022-08-22T06:21:06.634Z,1.98
2022-08-22T06:23:42.395Z,2.10
2022-08-22T06:26:20.613Z,1.95
2022-08-22T06:28:55.196Z,1.90
2022-08-22T06:31:30.491Z,2.20
2022-08-22T06:34:06.235Z,1.83
2022-08-22T06:36:38.794Z,1.90
2022-08-22T06:39:17.420Z,1.83
2022-08-22T06:41:52.387Z,1.70
2022-08-22T06:44:28.359Z,1.90
2022-08-22T06:47:01.078Z,1.77
2022-08-22T06:49:32.396Z,1.38
2022-08-22T06:52:06.443Z,1.33
2022-08-22T06:54:39.600Z,1.67
2022-08-22T06:57:26.525Z,1.67
2022-08-22T06:59:56.834Z,1.55
2022-08-22T07:02:36.611Z,1.33
2022-08-22T07:05:06.531Z,1.40
2022-08-22T07:07:36.141Z,1.15
2022-08-22T07:10:05.861Z,1.85
2022-08-22T07:12:37.117Z,1.60
2022-08-22T07:15:18.557Z,1.15
2022-08-22T07:17:58.233Z,1.30
2022-08-22T07:20:30.724Z,1.30
2022-08-22T07:23:04.622Z,1.20
2022-08-22T07:25:50.576Z,1.33
2022-08-22T07:28:51.633Z,1.05
2022-08-22T07:31:36.256Z,1.20
2022-08-22T07:34:25.232Z,1.30
2022-08-22T07:37:03.077Z,1.15
2022-08-22T07:39:36.432Z,1.40
2022-08-22T07:42:13.925Z,1.10
2022-08-22T07:45:02.643Z,1.35
2022-08-22T07:47:49.862Z,1.20
2022-08-22T07:50:25.356Z,1.10
2022-08-22T07:52:58.175Z,1.10
2022-08-22T07:55:26.768Z,1.63
2022-08-22T07:58:00.801Z,1.45
2022-08-22T08:00:29.828Z,1.10
2022-08-22T08:03:04.468Z,1.35
2022-08-22T08:05:36.089Z,1.60
2022-08-22T08:08:08.826Z,1.60
2022-08-22T08:10:42.810Z,1.40
2022-08-22T08:13:20.660Z,1.23
2022-08-22T08:15:50.449Z,1.67
2022-08-22T08:18:22.133Z,1.50
2022-08-22T08:20:52.814Z,1.60
2022-08-22T08:23:23.453Z,1.48
2022-08-22T08:26:04.960Z,1.70
2022-08-22T08:28:39.980Z,1.80
2022-08-22T08:31:20.635Z,1.30
2022-08-22T08:33:57.906Z,1.50
2022-08-22T08:36:38.991Z,1.98
2022-08-22T08:39:18.615Z,1.75
2022-08-22T08:42:24.407Z,1.60
2022-08-22T08:45:28.960Z,1.67
2022-08-22T08:48:43.983Z,1.80
2022-08-22T08:51:39.310Z,1.60
2022-08-22T08:54:31.711Z,1.67
2022-08-22T08:59:53.236Z,1.50
2022-08-22T09:02:47.752Z,2.00
2022-08-22T09:05:51.300Z,1.67
2022-08-22T09:08:59.670Z,1.48
2022-08-22T09:12:11.275Z,1.95
2022-08-22T09:15:12.019Z,1.65
2022-08-22T09:18:43.751Z,1.55
2022-08-22T09:21:53.050Z,2.53
2022-08-22T09:25:06.793Z,1.60
2022-08-22T09:27:41.043Z,1.65
2022-08-22T09:30:13.136Z,1.70
2022-08-22T09:32:59.162Z,1.52
2022-08-22T09:35:39.993Z,1.60
2022-08-22T09:38:33.795Z,1.60
2022-08-22T09:41:20.765Z,1.52
2022-08-22T09:43:57.735Z,1.60
2022-08-22T09:46:36.910Z,1.30
2022-08-22T09:49:10.925Z,1.60
2022-08-22T09:51:49.294Z,1.60
2022-08-22T09:54:31.101Z,1.50
2022-08-22T09:57:15.414Z,1.67
2022-08-22T10:00:33.937Z,1.60
2022-08-22T10:03:16.041Z,1.30
2022-08-22T10:05:52.821Z,1.40
2022-08-22T10:08:46.848Z,1.45
2022-08-22T10:11:26.374Z,1.52
2022-08-22T10:14:01.977Z,1.45
2022-08-22T10:16:57.117Z,1.80
2022-08-22T10:19:32.045Z,1.48
2022-08-22T10:22:33.202Z,1.27
2022-08-22T10:25:25.002Z,1.33
2022-08-22T10:28:12.404Z,1.35
2022-08-22T10:30:54.740Z,1.27
2022-08-22T10:33:29.653Z,1.20
2022-08-22T10:36:11.746Z,1.38
2022-08-22T10:38:47.013Z,1.20
2022-08-22T10:41:29.328Z,1.35
2022-08-22T10:44:04.861Z,1.42
2022-08-22T10:46:45.885Z,1.35
2022-08-22T10:49:28.893Z,1.60
2022-08-22T10:52:15.264Z,1.58
2022-08-22T10:54:49.791Z,1.30
2022-08-22T10:57:54.709Z,1.67
2022-08-22T11:00:46.460Z,1.50
2022-08-22T11:03:27.807Z,1.55
2022-08-22T11:06:00.975Z,1.27
2022-08-22T11:09:00.032Z,1.50
2022-08-22T11:11:43.601Z,1.45
2022-08-22T11:14:45.143Z,1.17
2022-08-22T11:17:40.729Z,1.10
2022-08-22T11:20:21.256Z,1.45
2022-08-22T11:23:16.490Z,1.42
2022-08-22T11:26:04.940Z,1.30
2022-08-22T11:29:13.817Z,1.40
2022-08-22T11:31:53.318Z,1.35
2022-08-22T11:34:39.779Z,1.25
2022-08-22T11:37:19.659Z,1.50
2022-08-22T11:40:12.585Z,1.23
2022-08-22T11:42:47.800Z,1.40
2022-08-22T11:45:21.539Z,1.50
2022-08-22T11:48:01.524Z,1.30
2022-08-22T11:50:38.791Z,1.42
2022-08-22T11:53:22.991Z,1.30
2022-08-22T11:56:06.059Z,1.48
2022-08-22T11:58:53.929Z,1.42
2022-08-22T12:01:34.362Z,1.40
2022-08-22T12:04:14.643Z,1.42
2022-08-22T12:06:55.008Z,1.48
2022-08-22T12:09:45.776Z,1.48
2022-08-22T12:12:32.755Z,1.40
2022-08-22T12:15:10.730Z,1.20
2022-08-22T12:18:21.824Z,1.33
2022-08-22T12:23:59.018Z,1.42
2022-08-22T12:26:46.815Z,1.30
2022-08-22T12:29:34.094Z,1.60
2022-08-22T12:32:55.583Z,1.50
2022-08-22T12:35:38.619Z,1.73
2022-08-22T12:38:31.264Z,1.40
2022-08-22T12:41:34.725Z,1.42
2022-08-22T12:44:43.840Z,1.50
2022-08-22T12:47:34.391Z,1.50
2022-08-22T12:50:21.547Z,1.40
2022-08-22T12:53:20.280Z,1.25
2022-08-22T12:56:05.977Z,1.50
2022-08-22T12:59:17.705Z,1.40
2022-08-22T13:01:49.369Z,1.73
2022-08-22T13:04:32.963Z,1.85
2022-08-22T13:07:23.137Z,1.80
2022-08-22T13:09:57.570Z,1.25
2022-08-22T13:12:36.368Z,1.40
2022-08-22T13:15:28.766Z,1.38
2022-08-22T13:18:13.208Z,1.60
2022-08-22T13:20:51.711Z,1.70
2022-08-22T13:23:25.917Z,1.63
2022-08-22T13:26:02.038Z,1.52
2022-08-22T13:28:33.355Z,1.50
2022-08-22T13:33:35.214Z,1.48
2022-08-22T13:36:06.987Z,1.80
2022-08-22T13:38:46.441Z,1.80
2022-08-22T13:41:23.420Z,1.48
2022-08-22T13:44:13.544Z,1.45
2022-08-22T13:47:10.823Z,1.58
2022-08-22T13:49:34.773Z,1.33
2022-08-22T13:52:29.368Z,1.65
2022-08-22T13:55:09.195Z,1.50
2022-08-22T13:57:45.563Z,1.38
2022-08-22T14:01:15.368Z,1.50
2022-08-22T14:03:50.213Z,1.30
2022-08-22T14:06:37.934Z,1.48
2022-08-22T14:09:31.996Z,1.70
2022-08-22T14:12:12.800Z,1.50
2022-08-22T14:14:46.388Z,1.70
2022-08-22T14:17:22.640Z,1.55
2022-08-22T14:19:58.914Z,1.60
2022-08-22T14:22:34.927Z,1.55
2022-08-22T14:25:16.502Z,1.70
2022-08-22T14:27:57.072Z,1.50
2022-08-22T14:30:30.725Z,1.60
2022-08-22T14:33:11.744Z,1.33
2022-08-22T14:38:46.144Z,1.50
2022-08-22T14:41:28.569Z,1.50
2022-08-22T14:44:21.848Z,1.60
2022-08-22T14:46:56.265Z,1.65
2022-08-22T14:49:47.197Z,1.70
2022-08-22T14:52:35.064Z,1.67
2022-08-22T14:55:15.603Z,1.60
2022-08-22T14:57:51.072Z,1.50
2022-08-22T15:00:32.973Z,1.80
2022-08-22T15:03:15.942Z,1.50
2022-08-22T15:05:52.349Z,1.80
2022-08-22T15:08:29.208Z,1.48
2022-08-22T15:11:12.375Z,1.52
2022-08-22T15:13:50.387Z,1.73
2022-08-22T15:16:22.355Z,1.35
2022-08-22T15:18:51.976Z,1.13
2022-08-22T15:21:24.136Z,1.77
2022-08-22T15:23:55.546Z,1.40
2022-08-22T15:26:31.850Z,1.48
2022-08-22T15:29:18.334Z,1.55
2022-08-22T15:31:51.644Z,1.70
2022-08-22T15:34:31.450Z,1.65
2022-08-22T15:37:26.291Z,1.40
2022-08-22T15:40:11.678Z,1.50
2022-08-22T15:42:43.985Z,1.75
2022-08-22T15:45:36.620Z,1.58
2022-08-22T15:48:09.603Z,2.15
2022-08-22T15:50:56.639Z,1.58
2022-08-22T15:53:30.121Z,1.55
2022-08-22T15:56:25.947Z,1.55
2022-08-22T15:59:53.383Z,1.63
2022-08-22T16:02:30.013Z,1.80
2022-08-22T16:05:24.896Z,1.60
2022-08-22T16:08:08.841Z,1.30
2022-08-22T16:10:41.417Z,1.60
2022-08-22T16:13:28.200Z,1.70
2022-08-22T16:16:01.269Z,1.48
2022-08-22T16:19:23.621Z,1.80
2022-08-22T16:22:12.219Z,1.50
2022-08-22T16:25:16.120Z,1.92
2022-08-22T16:27:56.416Z,1.42
2022-08-22T16:30:37.698Z,1.58
2022-08-22T16:33:05.911Z,1.52
2022-08-22T16:36:38.762Z,1.50
2022-08-22T16:39:13.636Z,1.35
2022-08-22T16:41:43.645Z,1.48
2022-08-22T16:44:41.442Z,1.55
2022-08-22T16:47:18.549Z,1.77
2022-08-22T16:50:08.128Z,1.60
2022-08-22T16:53:01.038Z,1.60
2022-08-22T16:56:13.385Z,1.50
2022-08-22T16:59:38.300Z,1.40
2022-08-22T17:02:43.268Z,1.40
2022-08-22T17:05:39.965Z,1.30
2022-08-22T17:08:39.381Z,1.27
2022-08-22T17:11:26.163Z,1.40
2022-08-22T17:14:12.480Z,1.60
2022-08-22T17:16:57.953Z,1.55
2022-08-22T17:19:44.735Z,1.60
2022-08-22T17:22:28.989Z,1.33
2022-08-22T17:25:15.076Z,1.50
2022-08-22T17:27:50.111Z,1.48
2022-08-22T17:30:28.660Z,1.35
2022-08-22T17:33:27.861Z,1.60
2022-08-22T17:36:21.733Z,1.58
2022-08-22T17:39:09.183Z,1.25
2022-08-22T17:41:52.328Z,1.50
2022-08-22T17:44:32.978Z,1.52
2022-08-22T17:47:12.445Z,1.50
2022-08-22T17:49:54.010Z,1.55
2022-08-22T17:52:29.948Z,1.90
2022-08-22T17:55:04.527Z,1.70
2022-08-22T17:57:39.228Z,1.50
2022-08-22T18:00:52.804Z,1.30
2022-08-22T18:03:28.640Z,1.40
2022-08-22T18:06:07.140Z,1.30
2022-08-22T18:11:40.599Z,1.58
2022-08-22T18:14:21.251Z,1.48
2022-08-22T18:16:52.496Z,1.55
2022-08-22T18:19:42.062Z,2.03
2022-08-22T18:22:22.014Z,1.33
2022-08-22T18:25:01.214Z,1.58
2022-08-22T18:27:36.145Z,1.80
2022-08-22T18:33:18.820Z,1.48
2022-08-22T18:35:55.214Z,1.63
2022-08-22T18:38:31.783Z,1.63
2022-08-22T18:41:15.081Z,1.42
2022-08-22T18:43:45.990Z,1.42
2022-08-22T18:46:51.696Z,1.50
2022-08-22T18:49:45.181Z,1.50
2022-08-22T18:52:39.812Z,1.50
2022-08-22T18:55:30.372Z,1.48
2022-08-22T18:58:43.675Z,1.50
2022-08-22T19:01:44.654Z,1.40
2022-08-22T19:04:57.926Z,1.58
2022-08-22T19:07:58.486Z,1.40
2022-08-22T19:10:44.205Z,1.60
2022-08-22T19:13:55.843Z,1.65
2022-08-22T19:16:57.635Z,1.48
2022-08-22T19:19:48.338Z,1.73
2022-08-22T19:22:26.626Z,1.45
2022-08-22T19:25:22.376Z,1.88
2022-08-22T19:30:49.872Z,1.70
2022-08-22T19:33:27.618Z,1.63
2022-08-22T19:36:28.637Z,1.70
2022-08-22T19:39:01.427Z,1.77
2022-08-22T19:41:50.210Z,1.80
2022-08-22T19:44:40.049Z,1.80
2022-08-22T19:47:30.348Z,1.48
2022-08-22T19:50:05.464Z,1.70
2022-08-22T19:52:54.464Z,1.75
2022-08-22T19:55:40.588Z,2.30
2022-08-22T19:58:30.268Z,1.42
2022-08-22T20:04:09.909Z,1.65
2022-08-22T20:06:50.871Z,1.85
2022-08-22T20:09:33.117Z,1.38
2022-08-22T20:12:15.525Z,1.60
2022-08-22T20:14:46.773Z,1.40
2022-08-22T20:17:40.376Z,1.60
2022-08-22T20:20:35.090Z,1.40
2022-08-22T20:23:11.845Z,1.35
2022-08-22T20:25:46.515Z,1.40
2022-08-22T20:28:37.848Z,1.70
2022-08-22T20:31:11.452Z,1.50
2022-08-22T20:33:46.068Z,1.40
2022-08-22T20:36:28.371Z,1.60
2022-08-22T20:39:02.947Z,1.63
2022-08-22T20:41:36.703Z,1.40
2022-08-22T20:44:13.552Z,1.80
2022-08-22T20:46:58.056Z,1.58
2022-08-22T20:49:28.502Z,1.80
2022-08-22T20:52:00.158Z,1.30
2022-08-22T20:54:30.898Z,1.67
2022-08-22T20:57:00.730Z,1.30
2022-08-22T20:59:35.984Z,1.40
2022-08-22T21:02:12.389Z,1.50
2022-08-22T21:04:47.862Z,1.50
2022-08-22T21:07:24.745Z,1.50
2022-08-22T21:10:05.572Z,1.70
2022-08-22T21:12:32.604Z,1.63
2022-08-22T21:14:59.536Z,1.60
2022-08-22T21:17:34.522Z,1.63
2022-08-22T21:20:19.341Z,1.58
2022-08-22T21:22:52.043Z,1.40
2022-08-22T21:25:19.141Z,1.60
2022-08-22T21:27:48.416Z,1.50
2022-08-22T21:30:25.198Z,1.70
2022-08-22T21:32:56.265Z,1.50
2022-08-22T21:35:31.698Z,1.60
2022-08-22T21:38:01.644Z,1.38
2022-08-22T21:40:38.305Z,1.50
2022-08-22T21:43:09.988Z,1.58
2022-08-22T21:45:44.144Z,1.48
2022-08-22T21:48:32.542Z,1.65
2022-08-22T21:51:22.160Z,1.48
2022-08-22T21:54:16.091Z,1.50
2022-08-22T21:56:37.849Z,1.38
2022-08-22T21:59:50.777Z,1.63
2022-08-22T22:02:34.213Z,1.50
2022-08-22T22:05:09.342Z,1.50
2022-08-22T22:07:39.275Z,1.60
2022-08-22T22:10:12.231Z,1.80
2022-08-22T22:12:40.410Z,1.40
2022-08-22T22:15:09.381Z,1.30
2022-08-22T22:17:36.495Z,1.48
2022-08-22T22:20:05.607Z,1.50
2022-08-22T22:22:33.966Z,1.38
2022-08-22T22:25:05.849Z,1.35
2022-08-22T22:27:54.374Z,1.50
2022-08-22T22:33:16.578Z,1.50
2022-08-22T22:35:44.469Z,1.40
2022-08-22T22:38:12.185Z,1.60
2022-08-22T22:40:40.115Z,1.83
2022-08-22T22:43:09.081Z,1.70
2022-08-22T22:45:36.554Z,1.60
2022-08-22T22:48:05.168Z,1.38
2022-08-22T22:50:32.825Z,1.30
2022-08-22T22:52:59.829Z,1.42
2022-08-22T22:55:26.918Z,1.33
2022-08-22T22:57:58.735Z,1.58
2022-08-22T23:00:31.106Z,1.35
2022-08-22T23:02:59.711Z,1.30
2022-08-22T23:05:27.215Z,1.50
2022-08-22T23:07:54.261Z,1.30
2022-08-22T23:10:22.266Z,1.40
2022-08-22T23:12:49.487Z,1.42
2022-08-22T23:15:16.668Z,1.67
2022-08-22T23:17:45.126Z,1.48
2022-08-22T23:20:12.648Z,1.35
2022-08-22T23:22:39.775Z,1.30
2022-08-22T23:25:07.306Z,1.40
2022-08-22T23:27:34.499Z,1.45
2022-08-22T23:30:01.340Z,1.60
2022-08-22T23:32:28.601Z,1.40
2022-08-22T23:34:57.102Z,1.40
2022-08-22T23:37:24.267Z,1.60
2022-08-22T23:39:51.251Z,1.30
2022-08-22T23:42:18.324Z,2.00
2022-08-22T23:44:45.945Z,1.50
2022-08-22T23:47:15.208Z,1.90
2022-08-22T23:49:43.351Z,1.48
2022-08-22T23:52:13.765Z,1.48
2022-08-22T23:54:40.705Z,1.63
2022-08-22T23:57:12.153Z,1.67
2022-08-22T23:59:46.209Z,1.40
